Time;durP1;ratioP1;P1;durP2;ratioP2;P2;SDS_P1;SDS_P2;PMS_P1;PMS_P2;Temp;Humidity;BMP_temperature;BMP_pressure;BME280_temperature;BME280_humidity;BME280_pressure;Samples;Min_cycle;Max_cycle;Signal;HPM_P1;HPM_P2
2023/05/06 00:00:18;;;;;;;21.47;11.07;;;;;;;10.51;100.00;95292.59;5028234;28;20234;-70
2023/05/06 00:02:44;;;;;;;21.77;11.97;;;;;;;10.44;100.00;95294.34;4998004;28;20693;-69
2023/05/06 00:05:10;;;;;;;21.80;11.90;;;;;;;10.48;100.00;95297.41;5023390;28;20231;-70
2023/05/06 00:07:35;;;;;;;21.47;11.70;;;;;;;10.39;100.00;95293.31;5004682;28;21026;-69
2023/05/06 00:10:00;;;;;;;21.43;11.40;;;;;;;10.57;99.87;95297.09;5004127;28;20230;-69
2023/05/06 00:12:26;;;;;;;19.37;11.20;;;;;;;10.70;99.07;95294.56;5010317;28;20280;-70
2023/05/06 00:14:51;;;;;;;21.33;11.53;;;;;;;10.60;99.61;95283.59;5002519;28;20246;-70
2023/05/06 00:17:17;;;;;;;20.30;11.40;;;;;;;10.55;100.00;95293.84;4993839;28;20345;-70
2023/05/06 00:19:43;;;;;;;19.23;11.47;;;;;;;10.44;100.00;95291.75;4998317;28;20226;-69
2023/05/06 00:22:08;;;;;;;20.07;10.90;;;;;;;10.44;100.00;95293.53;5005430;28;20731;-69
2023/05/06 00:24:34;;;;;;;26.17;11.40;;;;;;;10.39;100.00;95291.50;4996588;28;20227;-69
2023/05/06 00:27:00;;;;;;;22.17;11.47;;;;;;;10.40;100.00;95289.69;5022124;28;20291;-69
2023/05/06 00:29:26;;;;;;;25.80;11.23;;;;;;;10.35;100.00;95282.41;4997889;28;20273;-68
2023/05/06 00:31:51;;;;;;;19.90;11.20;;;;;;;10.50;99.17;95296.22;5021245;28;20259;-69
2023/05/06 00:34:16;;;;;;;18.83;10.93;;;;;;;10.33;100.00;95286.22;5023317;28;20229;-70
2023/05/06 00:36:42;;;;;;;21.40;11.57;;;;;;;10.52;99.12;95281.16;5002019;28;20226;-69
2023/05/06 00:39:08;;;;;;;19.87;10.70;;;;;;;10.46;99.37;95292.34;4993843;28;20227;-70
2023/05/06 00:41:34;;;;;;;20.00;11.17;;;;;;;10.35;99.71;95287.66;4992428;28;20233;-70
2023/05/06 00:43:59;;;;;;;20.27;11.10;;;;;;;10.11;100.00;95288.00;5003326;28;20223;-70
2023/05/06 00:46:25;;;;;;;19.37;10.90;;;;;;;10.18;100.00;95286.28;5022651;28;20587;-69
2023/05/06 00:48:50;;;;;;;21.17;10.97;;;;;;;10.15;100.00;95292.69;4999461;28;20244;-70
2023/05/06 00:51:16;;;;;;;19.60;10.57;;;;;;;10.28;100.00;95278.13;4999029;28;20227;-69
2023/05/06 00:53:42;;;;;;;18.97;10.47;;;;;;;10.05;100.00;95283.53;4981529;28;20297;-69
2023/05/06 00:56:08;;;;;;;19.33;10.53;;;;;;;10.09;100.00;95284.78;4981738;28;20254;-69
2023/05/06 00:58:33;;;;;;;19.00;10.93;;;;;;;10.18;99.74;95288.09;5011262;28;20231;-71
2023/05/06 01:00:59;;;;;;;19.63;10.93;;;;;;;10.03;100.00;95282.91;4982797;28;20973;-69
2023/05/06 01:03:26;;;;;;;20.93;10.93;;;;;;;9.82;100.00;95288.94;4988787;28;20235;-69
2023/05/06 01:06:17;;;;;;;22.87;10.60;;;;;;;9.98;100.00;95283.44;4979655;28;20243;-69
2023/05/06 01:09:04;;;;;;;18.57;10.30;;;;;;;9.99;100.00;95289.50;5007924;28;20246;-70
2023/05/06 01:11:40;;;;;;;22.23;10.50;;;;;;;9.91;100.00;95284.41;5020718;28;20236;-70
2023/05/06 01:14:37;;;;;;;18.60;10.40;;;;;;;9.84;100.00;95276.47;4998960;28;20773;-69
2023/05/06 01:17:05;;;;;;;19.50;11.03;;;;;;;9.87;100.00;95280.53;4991499;28;20247;-70
2023/05/06 01:19:57;;;;;;;19.13;11.17;;;;;;;9.78;100.00;95273.81;5005019;28;20341;-70
2023/05/06 01:22:22;;;;;;;22.00;11.57;;;;;;;9.45;100.00;95276.06;5015439;28;20241;-69
2023/05/06 01:24:48;;;;;;;20.13;11.27;;;;;;;9.53;100.00;95272.53;4980056;28;20701;-70
2023/05/06 01:27:15;;;;;;;21.30;11.50;;;;;;;9.65;100.00;95284.91;5015182;28;20237;-71
2023/05/06 01:29:41;;;;;;;17.90;11.27;;;;;;;9.63;100.00;95270.41;4998948;28;20239;-69
2023/05/06 01:32:16;;;;;;;21.80;11.13;;;;;;;9.88;100.00;95266.47;4980368;28;20356;-69
2023/05/06 01:34:54;;;;;;;23.43;11.30;;;;;;;9.82;100.00;95268.00;5011459;28;20238;-70
2023/05/06 01:37:22;;;;;;;20.33;11.37;;;;;;;9.94;100.00;95270.94;4992156;28;20669;-69
2023/05/06 01:39:48;;;;;;;20.63;10.70;;;;;;;9.86;100.00;95271.09;4993627;28;20252;-69
2023/05/06 01:42:13;;;;;;;17.13;10.50;;;;;;;9.81;100.00;95268.22;4995399;28;20281;-70
2023/05/06 01:44:39;;;;;;;18.37;10.80;;;;;;;9.87;100.00;95270.06;5013163;28;20568;-69
2023/05/06 01:47:04;;;;;;;19.63;11.03;;;;;;;9.84;100.00;95270.47;5007624;28;20235;-69
2023/05/06 01:49:30;;;;;;;20.90;10.87;;;;;;;9.76;100.00;95271.38;5005476;28;20242;-69
2023/05/06 01:51:56;;;;;;;19.57;10.60;;;;;;;9.63;100.00;95273.84;5006839;28;20296;-70
2023/05/06 01:54:22;;;;;;;21.23;11.40;;;;;;;9.71;100.00;95275.53;5003956;28;20678;-69
2023/05/06 01:56:47;;;;;;;20.17;10.70;;;;;;;9.82;100.00;95273.25;5001216;28;20254;-69
2023/05/06 01:59:13;;;;;;;20.87;11.90;;;;;;;9.60;100.00;95274.22;4984532;28;20789;-70
2023/05/06 02:01:38;;;;;;;21.13;11.30;;;;;;;9.61;100.00;95281.06;5014868;28;20326;-69
2023/05/06 02:04:03;;;;;;;19.47;11.40;;;;;;;9.63;100.00;95278.25;5014918;28;20242;-70
2023/05/06 02:06:29;;;;;;;24.40;11.67;;;;;;;9.68;100.00;95278.50;4997372;28;20262;-70
2023/05/06 02:08:54;;;;;;;21.40;11.30;;;;;;;9.65;100.00;95268.47;5019183;28;20284;-69
2023/05/06 02:11:20;;;;;;;22.17;11.30;;;;;;;9.77;100.00;95261.72;4999956;28;20239;-70
2023/05/06 02:13:45;;;;;;;22.93;11.13;;;;;;;9.62;100.00;95268.81;5000204;28;20227;-69
2023/05/06 02:16:11;;;;;;;21.10;11.43;;;;;;;9.59;100.00;95266.56;5014627;28;20226;-69
2023/05/06 02:18:36;;;;;;;21.20;11.73;;;;;;;9.59;100.00;95267.38;5001380;28;20226;-69
2023/05/06 02:21:02;;;;;;;22.30;11.93;;;;;;;9.47;100.00;95264.44;5018567;28;20230;-69
2023/05/06 02:23:27;;;;;;;21.73;11.67;;;;;;;9.57;100.00;95263.34;4999121;28;20314;-72
2023/05/06 02:25:53;;;;;;;23.23;11.17;;;;;;;9.56;100.00;95266.94;4994041;28;20650;-69
2023/05/06 02:28:18;;;;;;;23.30;11.70;;;;;;;9.66;100.00;95270.06;5013630;28;20226;-70
2023/05/06 02:30:44;;;;;;;21.80;11.80;;;;;;;9.40;100.00;95274.00;4997748;28;20242;-69
2023/05/06 02:33:09;;;;;;;23.90;11.60;;;;;;;9.43;100.00;95263.16;4994866;28;20723;-70
2023/05/06 02:35:35;;;;;;;21.73;11.97;;;;;;;9.30;100.00;95270.88;5015494;28;20230;-70
2023/05/06 02:38:00;;;;;;;19.53;11.57;;;;;;;9.44;100.00;95269.22;5012108;28;20250;-70
2023/05/06 02:40:26;;;;;;;23.40;12.20;;;;;;;9.53;100.00;95270.72;4998271;28;20241;-69
2023/05/06 02:42:51;;;;;;;19.70;11.70;;;;;;;9.47;100.00;95269.66;4998685;28;20234;-69
2023/05/06 02:45:17;;;;;;;22.60;12.07;;;;;;;9.34;100.00;95279.94;5013041;28;20258;-69
2023/05/06 02:47:42;;;;;;;21.53;12.50;;;;;;;9.32;100.00;95278.50;4999593;28;20235;-69
2023/05/06 02:50:08;;;;;;;21.93;12.43;;;;;;;9.47;100.00;95272.28;4983181;28;20231;-69
2023/05/06 02:52:33;;;;;;;22.20;12.20;;;;;;;9.25;100.00;95278.44;5023481;28;20263;-69
2023/05/06 02:54:59;;;;;;;22.70;11.90;;;;;;;9.25;100.00;95275.00;5017208;28;20611;-70
2023/05/06 02:57:25;;;;;;;28.40;13.17;;;;;;;9.09;100.00;95283.88;5006640;28;20225;-69
2023/05/06 02:59:51;;;;;;;21.03;12.27;;;;;;;9.12;100.00;95286.09;5003523;28;20823;-69
2023/05/06 03:02:16;;;;;;;22.53;12.23;;;;;;;9.22;100.00;95289.25;5024805;28;20649;-69
2023/05/06 03:04:42;;;;;;;23.13;11.90;;;;;;;9.12;100.00;95287.91;4998895;28;20622;-69
2023/05/06 03:07:07;;;;;;;22.43;12.23;;;;;;;9.36;100.00;95282.41;5011489;28;20289;-69
2023/05/06 03:09:32;;;;;;;20.37;11.70;;;;;;;9.35;100.00;95286.81;5000573;28;20241;-69
2023/05/06 03:11:58;;;;;;;19.97;11.43;;;;;;;9.48;100.00;95286.94;5006218;28;20234;-69
2023/05/06 03:14:23;;;;;;;23.00;12.43;;;;;;;9.37;100.00;95278.78;5014167;28;20657;-69
2023/05/06 03:16:49;;;;;;;22.50;11.60;;;;;;;9.24;100.00;95289.88;5022529;28;20232;-69
2023/05/06 03:19:14;;;;;;;21.87;11.90;;;;;;;9.22;100.00;95291.84;5011579;28;20242;-70
2023/05/06 03:21:40;;;;;;;21.23;11.97;;;;;;;9.12;100.00;95293.94;5013465;28;20264;-70
2023/05/06 03:24:05;;;;;;;20.33;12.07;;;;;;;9.10;100.00;95301.13;5023474;28;20230;-69
2023/05/06 03:26:31;;;;;;;23.67;12.03;;;;;;;9.25;100.00;95301.94;5017370;28;20258;-69
2023/05/06 03:28:56;;;;;;;22.80;11.40;;;;;;;9.15;100.00;95297.97;4997283;28;20233;-70
2023/05/06 03:31:22;;;;;;;19.93;11.70;;;;;;;9.16;100.00;95302.22;4982507;28;20245;-70
2023/05/06 03:33:47;;;;;;;22.03;11.80;;;;;;;9.24;100.00;95300.31;5014063;28;20254;-69
2023/05/06 03:36:13;;;;;;;22.70;11.67;;;;;;;9.30;100.00;95304.81;5002144;28;20230;-68
2023/05/06 03:38:39;;;;;;;24.50;12.47;;;;;;;9.20;100.00;95311.31;5023454;28;20237;-69
2023/05/06 03:41:05;;;;;;;21.67;12.00;;;;;;;9.09;100.00;95309.16;5005672;28;20287;-69
2023/05/06 03:43:30;;;;;;;25.67;12.47;;;;;;;9.25;100.00;95316.78;5007723;28;20222;-70
2023/05/06 03:45:56;;;;;;;20.87;12.00;;;;;;;9.18;100.00;95310.69;4990127;28;20235;-69
2023/05/06 03:48:22;;;;;;;21.63;11.47;;;;;;;9.36;100.00;95300.69;5013773;28;20233;-69
2023/05/06 03:50:48;;;;;;;27.67;13.33;;;;;;;9.44;100.00;95305.78;5001906;28;20234;-68
2023/05/06 03:53:13;;;;;;;24.30;13.10;;;;;;;9.65;100.00;95307.66;5009253;28;20230;-68
2023/05/06 03:55:39;;;;;;;30.60;14.60;;;;;;;9.61;100.00;95317.66;4985403;28;20227;-69
2023/05/06 03:58:04;;;;;;;29.57;14.77;;;;;;;9.60;100.00;95320.47;5028429;28;20685;-69
2023/05/06 04:00:30;;;;;;;33.73;16.40;;;;;;;9.67;100.00;95319.53;5021250;28;20292;-69
2023/05/06 04:02:56;;;;;;;30.47;16.60;;;;;;;9.60;100.00;95325.69;5013004;28;20227;-69
2023/05/06 04:05:21;;;;;;;33.43;16.50;;;;;;;9.85;100.00;95325.16;5013921;28;20237;-67
2023/05/06 04:07:47;;;;;;;28.80;15.70;;;;;;;10.04;100.00;95329.78;5010769;28;20242;-68
2023/05/06 04:10:12;;;;;;;29.20;15.80;;;;;;;10.03;100.00;95328.16;5000028;28;20233;-68
2023/05/06 04:12:38;;;;;;;31.10;16.47;;;;;;;10.14;100.00;95326.91;5004480;28;20253;-69
2023/05/06 04:15:06;;;;;;;26.63;14.83;;;;;;;10.15;100.00;95324.09;5009220;28;20723;-69
2023/05/06 04:17:31;;;;;;;30.50;15.97;;;;;;;10.09;100.00;95329.22;5014022;28;20266;-68
2023/05/06 04:19:57;;;;;;;30.43;15.50;;;;;;;10.26;100.00;95325.41;5010818;28;20322;-69
2023/05/06 04:22:23;;;;;;;27.63;15.67;;;;;;;10.32;100.00;95327.25;5009742;28;20301;-68
2023/05/06 04:24:49;;;;;;;28.47;15.90;;;;;;;10.33;100.00;95335.91;4996618;28;20226;-69
2023/05/06 04:27:14;;;;;;;28.87;15.00;;;;;;;10.36;100.00;95328.53;4999665;28;20244;-70
2023/05/06 04:29:43;;;;;;;27.60;15.13;;;;;;;10.34;100.00;95327.09;5001333;28;20237;-68
2023/05/06 04:32:10;;;;;;;27.23;15.37;;;;;;;10.23;99.21;95336.25;4994263;28;20226;-71
2023/05/06 04:34:36;;;;;;;29.47;15.50;;;;;;;10.19;98.08;95332.38;4976915;28;20230;-69
2023/05/06 04:37:01;;;;;;;27.83;14.70;;;;;;;10.35;98.24;95337.34;5009883;28;20226;-69
2023/05/06 04:39:26;;;;;;;28.50;15.73;;;;;;;10.42;97.79;95333.00;5008940;28;20238;-68
2023/05/06 04:41:55;;;;;;;32.53;15.73;;;;;;;10.29;98.49;95337.31;4996504;28;20633;-69
2023/05/06 04:44:21;;;;;;;26.83;15.70;;;;;;;10.25;99.33;95347.31;4998176;28;20283;-69
2023/05/06 04:46:47;;;;;;;26.80;15.73;;;;;;;10.33;99.62;95343.78;4980390;28;20241;-69
2023/05/06 04:49:12;;;;;;;28.63;16.47;;;;;;;10.51;97.21;95351.97;5010896;28;20219;-70
2023/05/06 04:51:38;;;;;;;26.87;16.57;;;;;;;10.69;96.53;95345.31;5002126;28;20618;-69
2023/05/06 04:54:03;;;;;;;31.20;16.23;;;;;;;10.92;94.84;95339.81;5011600;28;20607;-68
2023/05/06 04:56:29;;;;;;;28.47;16.20;;;;;;;11.03;94.60;95344.56;4987088;28;20231;-69
2023/05/06 04:58:55;;;;;;;29.90;16.23;;;;;;;11.32;93.34;95352.16;5003902;28;20743;-70
2023/05/06 05:01:20;;;;;;;29.23;16.23;;;;;;;11.39;93.30;95358.25;4971102;28;20234;-69
2023/05/06 05:03:49;;;;;;;30.87;17.03;;;;;;;11.40;92.23;95361.69;5010161;28;20230;-69
2023/05/06 05:06:14;;;;;;;32.10;17.30;;;;;;;12.17;89.48;95367.47;5010479;28;20985;-71
2023/05/06 05:08:40;;;;;;;30.63;17.23;;;;;;;13.21;83.65;95368.56;5004089;28;20231;-68
2023/05/06 05:11:05;;;;;;;31.00;16.87;;;;;;;14.28;80.54;95368.84;4985605;28;20241;-70
2023/05/06 05:13:31;;;;;;;32.43;16.93;;;;;;;15.26;76.82;95368.94;4990354;28;20234;-70
2023/05/06 05:15:56;;;;;;;28.27;16.30;;;;;;;15.25;75.68;95374.44;5017078;28;20249;-70
2023/05/06 05:18:22;;;;;;;27.80;16.80;;;;;;;14.33;79.38;95374.31;5012050;28;20233;-69
2023/05/06 05:20:47;;;;;;;30.00;16.57;;;;;;;13.69;82.07;95369.88;5007129;28;20222;-69
2023/05/06 05:23:13;;;;;;;26.90;15.77;;;;;;;13.89;81.23;95377.72;5002170;28;20235;-70
2023/05/06 05:25:38;;;;;;;32.13;17.03;;;;;;;13.09;85.23;95372.81;5015014;28;20257;-69
2023/05/06 05:28:04;;;;;;;26.43;16.20;;;;;;;12.81;85.85;95381.72;5015373;28;20234;-69
2023/05/06 05:30:29;;;;;;;32.33;16.10;;;;;;;12.90;87.41;95377.06;4998014;28;20309;-70
2023/05/06 05:32:54;;;;;;;26.90;15.93;;;;;;;12.93;85.24;95368.78;5010979;28;20238;-70
2023/05/06 05:35:20;;;;;;;30.80;15.00;;;;;;;12.89;86.42;95369.38;5015160;28;20764;-69
2023/05/06 05:37:45;;;;;;;26.33;15.07;;;;;;;12.91;85.81;95368.19;5012654;28;20222;-69
2023/05/06 05:40:11;;;;;;;28.07;14.90;;;;;;;12.94;85.91;95369.59;5014081;28;20297;-70
2023/05/06 05:42:37;;;;;;;27.07;14.93;;;;;;;12.85;87.73;95367.16;5001946;28;20747;-70
2023/05/06 05:45:03;;;;;;;28.40;16.03;;;;;;;12.82;86.21;95366.78;5019276;28;20229;-69
2023/05/06 05:47:29;;;;;;;27.93;14.93;;;;;;;12.88;86.71;95371.19;5007836;28;20233;-70
2023/05/06 05:49:54;;;;;;;29.87;15.43;;;;;;;12.84;86.63;95373.44;5025445;28;20223;-70
2023/05/06 05:52:19;;;;;;;27.20;15.47;;;;;;;12.85;87.10;95371.59;5023949;28;20239;-69
2023/05/06 05:54:45;;;;;;;30.43;15.83;;;;;;;12.89;87.76;95370.19;5002517;28;20234;-69
2023/05/06 05:57:11;;;;;;;27.37;15.30;;;;;;;12.88;88.16;95370.38;5003415;28;20242;-69
2023/05/06 05:59:36;;;;;;;25.17;15.07;;;;;;;12.87;86.93;95372.22;5008005;28;20700;-69
2023/05/06 06:02:02;;;;;;;26.27;14.97;;;;;;;12.92;86.21;95366.38;5026751;28;20246;-70
2023/05/06 06:04:27;;;;;;;24.80;14.90;;;;;;;12.96;86.72;95372.81;5013532;28;20265;-68
2023/05/06 06:06:56;;;;;;;24.83;14.03;;;;;;;12.89;85.93;95383.34;4984519;28;20242;-68
2023/05/06 06:09:22;;;;;;;28.13;14.30;;;;;;;12.85;86.16;95379.47;5002496;28;20237;-68
2023/05/06 06:11:48;;;;;;;25.83;14.53;;;;;;;12.97;85.87;95391.00;5000231;28;20721;-69
2023/05/06 06:14:13;;;;;;;22.17;13.70;;;;;;;13.09;87.15;95389.41;5013353;28;20226;-69
2023/05/06 06:16:38;;;;;;;24.33;14.13;;;;;;;13.09;85.15;95389.41;5014497;28;20280;-69
2023/05/06 06:19:05;;;;;;;27.43;14.43;;;;;;;13.16;84.62;95390.22;5024416;28;20291;-69
2023/05/06 06:21:30;;;;;;;22.37;13.30;;;;;;;13.21;85.04;95392.22;4996465;28;20246;-69
2023/05/06 06:23:56;;;;;;;25.60;13.63;;;;;;;13.26;86.65;95389.81;4991076;28;20231;-70
2023/05/06 06:26:22;;;;;;;22.87;12.77;;;;;;;13.25;85.57;95391.66;5006745;28;20237;-69
2023/05/06 06:28:47;;;;;;;20.80;11.67;;;;;;;13.25;84.58;95388.19;5001552;28;20638;-68
2023/05/06 06:31:12;;;;;;;18.97;11.63;;;;;;;13.27;85.00;95381.72;5019020;28;20321;-70
2023/05/06 06:33:38;;;;;;;19.57;11.07;;;;;;;13.37;83.18;95382.09;5000990;28;20232;-70
2023/05/06 06:36:04;;;;;;;17.33;10.83;;;;;;;13.38;85.03;95388.16;5012393;28;20230;-69
2023/05/06 06:38:29;;;;;;;17.80;9.73;;;;;;;13.27;83.65;95387.00;4987530;28;20720;-70
2023/05/06 06:40:55;;;;;;;20.87;10.07;;;;;;;13.27;83.74;95387.00;5013370;28;20238;-70
2023/05/06 06:43:22;;;;;;;15.33;10.37;;;;;;;13.31;84.18;95388.19;5000305;28;20277;-69
2023/05/06 06:45:47;;;;;;;19.93;10.93;;;;;;;13.33;82.96;95383.53;4996886;28;20227;-69
2023/05/06 06:48:13;;;;;;;19.70;11.87;;;;;;;13.36;83.17;95390.19;5024279;28;20242;-70
2023/05/06 06:50:38;;;;;;;18.67;11.33;;;;;;;13.47;83.69;95390.38;5007856;28;20237;-69
2023/05/06 06:53:04;;;;;;;27.07;13.50;;;;;;;13.50;83.46;95397.03;5005640;28;20237;-68
2023/05/06 06:55:29;;;;;;;25.60;12.90;;;;;;;13.61;84.68;95393.81;4998699;28;20234;-68
2023/05/06 06:57:55;;;;;;;23.60;13.40;;;;;;;13.66;84.97;95390.56;5006177;28;20292;-69
2023/05/06 07:00:20;;;;;;;25.63;13.37;;;;;;;13.74;85.94;95391.13;5002470;28;20230;-69
2023/05/06 07:02:47;;;;;;;24.10;13.70;;;;;;;13.83;85.78;95392.50;5016398;28;20237;-69
2023/05/06 07:05:13;;;;;;;21.87;13.27;;;;;;;13.97;84.99;95395.91;5015399;28;20230;-69
2023/05/06 07:07:38;;;;;;;23.03;13.00;;;;;;;13.87;83.05;95398.16;4998430;28;20237;-69
2023/05/06 07:10:04;;;;;;;28.03;14.30;;;;;;;13.88;83.22;95399.75;4999458;28;20349;-68
2023/05/06 07:12:30;;;;;;;26.87;14.07;;;;;;;14.18;82.73;95403.50;4997526;28;20234;-70
2023/05/06 07:14:55;;;;;;;23.90;13.40;;;;;;;14.24;82.82;95407.94;5023479;28;20711;-71
2023/05/06 07:17:21;;;;;;;21.60;13.23;;;;;;;14.32;83.40;95402.47;5022561;28;20474;-68
2023/05/06 07:19:46;;;;;;;21.57;12.17;;;;;;;14.29;81.91;95405.47;5004366;28;20233;-69
2023/05/06 07:22:12;;;;;;;22.43;12.30;;;;;;;14.46;81.46;95406.63;5005987;28;20238;-68
2023/05/06 07:24:37;;;;;;;20.47;11.70;;;;;;;14.42;80.37;95408.09;5022979;28;20230;-69
2023/05/06 07:27:03;;;;;;;17.33;11.03;;;;;;;14.42;80.32;95409.91;5015886;28;20230;-69
2023/05/06 07:29:29;;;;;;;19.00;11.63;;;;;;;14.65;80.61;95408.34;5012258;28;20234;-69
2023/05/06 07:31:54;;;;;;;21.27;10.40;;;;;;;14.70;82.75;95412.97;4998637;28;20238;-69
2023/05/06 07:34:20;;;;;;;16.17;9.27;;;;;;;14.84;81.56;95406.59;4981642;28;20230;-69
2023/05/06 07:36:45;;;;;;;14.57;9.10;;;;;;;14.91;79.90;95409.19;5005482;28;20701;-69
2023/05/06 07:39:11;;;;;;;15.27;9.13;;;;;;;15.13;81.51;95405.16;5009092;28;20284;-69
2023/05/06 07:41:36;;;;;;;12.90;8.43;;;;;;;15.52;80.06;95404.84;5005614;28;20241;-69
2023/05/06 07:44:02;;;;;;;12.40;8.07;;;;;;;15.47;77.94;95402.88;5023320;28;20234;-70
2023/05/06 07:46:28;;;;;;;16.67;8.27;;;;;;;15.75;78.86;95412.94;4996991;28;20238;-69
2023/05/06 07:48:53;;;;;;;14.17;8.20;;;;;;;15.77;78.66;95407.41;5014098;28;20233;-69
2023/05/06 07:51:19;;;;;;;15.07;7.87;;;;;;;15.84;75.96;95408.97;4978894;28;20289;-69
2023/05/06 07:53:44;;;;;;;13.07;8.63;;;;;;;15.49;76.58;95411.38;4997805;28;20238;-68
2023/05/06 07:56:10;;;;;;;16.00;10.03;;;;;;;15.39;76.88;95405.75;5024114;28;20269;-71
2023/05/06 07:58:35;;;;;;;16.53;9.50;;;;;;;15.68;76.49;95409.56;5015414;28;20768;-70
2023/05/06 08:01:02;;;;;;;14.13;9.10;;;;;;;15.66;77.12;95408.16;5003281;28;20366;-69
2023/05/06 08:03:28;;;;;;;14.43;8.73;;;;;;;15.98;76.21;95404.34;5000662;28;20270;-69
2023/05/06 08:05:54;;;;;;;12.80;7.80;;;;;;;16.21;75.91;95409.78;5001253;28;20241;-69
2023/05/06 08:08:20;;;;;;;11.50;7.00;;;;;;;16.14;75.59;95409.81;4998116;28;20236;-68
2023/05/06 08:10:46;;;;;;;11.77;6.80;;;;;;;16.42;75.25;95398.72;5015223;28;20226;-68
2023/05/06 08:13:11;;;;;;;9.80;6.10;;;;;;;16.24;75.04;95403.25;5001690;28;20284;-70
2023/05/06 08:15:37;;;;;;;10.13;6.30;;;;;;;16.24;73.95;95403.25;4998620;28;20223;-69
2023/05/06 08:18:03;;;;;;;11.90;6.50;;;;;;;16.53;73.31;95408.56;5005708;28;20300;-68
2023/05/06 08:20:28;;;;;;;10.20;6.20;;;;;;;16.59;72.94;95407.69;4996571;28;20289;-69
2023/05/06 08:22:54;;;;;;;9.87;6.27;;;;;;;17.06;72.77;95413.88;5006194;28;20238;-69
2023/05/06 08:25:19;;;;;;;10.47;6.40;;;;;;;17.07;71.75;95404.94;5012495;28;20239;-70
2023/05/06 08:27:45;;;;;;;11.40;6.07;;;;;;;17.33;72.16;95414.28;5023899;28;20234;-69
2023/05/06 08:30:11;;;;;;;11.13;7.33;;;;;;;17.03;70.60;95405.63;4997923;28;20242;-69
2023/05/06 08:32:38;;;;;;;10.33;6.60;;;;;;;17.04;71.16;95410.66;5013946;28;20662;-70
2023/05/06 08:35:04;;;;;;;9.93;6.30;;;;;;;17.12;70.68;95407.72;5001575;28;20231;-70
2023/05/06 08:37:30;;;;;;;9.53;6.27;;;;;;;17.22;72.27;95401.84;5023586;28;20230;-70
2023/05/06 08:39:55;;;;;;;12.07;6.40;;;;;;;17.30;69.86;95404.94;5012889;28;20809;-71
2023/05/06 08:42:22;;;;;;;11.93;6.33;;;;;;;17.55;69.21;95401.31;5009577;28;20241;-70
2023/05/06 08:44:47;;;;;;;9.60;6.43;;;;;;;17.51;69.37;95406.22;5000242;28;20254;-70
2023/05/06 08:47:13;;;;;;;10.47;6.77;;;;;;;17.91;69.69;95414.31;5014919;28;21105;-70
2023/05/06 08:49:38;;;;;;;8.80;6.10;;;;;;;17.90;67.34;95412.69;5012952;28;20234;-70
2023/05/06 08:52:05;;;;;;;9.43;6.13;;;;;;;17.92;66.63;95413.25;5022006;28;20242;-69
2023/05/06 08:54:32;;;;;;;8.17;5.43;;;;;;;18.27;66.79;95406.03;5012772;28;20239;-69
2023/05/06 08:56:58;;;;;;;10.20;5.80;;;;;;;18.56;67.49;95407.69;5003367;28;20231;-69
2023/05/06 08:59:24;;;;;;;8.03;5.80;;;;;;;18.82;66.12;95401.81;5004944;28;20227;-70
2023/05/06 09:01:50;;;;;;;8.80;5.90;;;;;;;18.95;66.94;95394.59;4997100;28;20649;-70
2023/05/06 09:04:16;;;;;;;7.97;6.10;;;;;;;18.80;66.43;95398.59;5005917;28;20226;-70
2023/05/06 09:06:41;;;;;;;11.87;6.60;;;;;;;18.98;64.96;95389.63;4993522;28;20671;-70
2023/05/06 09:09:07;;;;;;;10.20;6.57;;;;;;;18.72;64.93;95391.00;4996891;28;20222;-70
2023/05/06 09:11:32;;;;;;;10.07;6.40;;;;;;;18.88;64.53;95378.03;5017063;28;20237;-70
2023/05/06 09:14:08;;;;;;;9.00;5.60;;;;;;;18.82;64.78;95374.47;5020708;28;20257;-70
2023/05/06 09:16:34;;;;;;;11.60;5.70;;;;;;;18.86;65.52;95372.16;5011714;28;20321;-71
2023/05/06 09:18:59;;;;;;;9.83;5.80;;;;;;;18.56;66.32;95383.81;5013540;28;20226;-69
2023/05/06 09:21:35;;;;;;;8.63;5.67;;;;;;;18.50;65.01;95368.88;5009890;28;20233;-70
2023/05/06 09:24:01;;;;;;;10.10;6.23;;;;;;;18.60;64.18;95384.97;5008894;28;20230;-70
2023/05/06 09:26:29;;;;;;;8.53;5.47;;;;;;;18.55;64.22;95379.59;4998399;28;20313;-70
2023/05/06 09:28:55;;;;;;;8.77;6.03;;;;;;;18.37;64.49;95371.78;4952880;28;1195023;-71
2023/05/06 09:31:21;;;;;;;9.50;6.10;;;;;;;18.67;66.39;95374.22;5012535;28;20333;-70
2023/05/06 09:33:46;;;;;;;9.87;5.70;;;;;;;18.65;65.21;95366.47;5020685;28;20694;-70
2023/05/06 09:36:12;;;;;;;10.00;5.70;;;;;;;18.47;63.32;95366.69;4998355;28;20316;-70
2023/05/06 09:38:40;;;;;;;8.63;5.97;;;;;;;18.55;64.41;95361.03;5016195;28;20230;-70
2023/05/06 09:41:06;;;;;;;9.83;5.80;;;;;;;18.84;63.39;95359.91;5011052;28;20259;-70
2023/05/06 09:43:32;;;;;;;11.53;5.70;;;;;;;18.81;64.05;95357.78;4993741;28;20739;-71
2023/05/06 09:46:00;;;;;;;9.27;5.57;;;;;;;18.51;62.91;95353.78;5002307;28;20261;-70
2023/05/06 09:48:29;;;;;;;8.63;5.23;;;;;;;18.53;63.97;95347.19;4994121;28;20265;-69
2023/05/06 09:50:55;;;;;;;8.87;5.43;;;;;;;18.64;64.16;95354.28;5023118;28;20318;-68
2023/05/06 09:53:20;;;;;;;10.70;5.80;;;;;;;18.68;64.74;95344.00;5008114;28;20322;-68
2023/05/06 09:55:46;;;;;;;10.37;5.57;;;;;;;18.63;63.71;95350.00;5016032;28;20230;-70
2023/05/06 09:58:12;;;;;;;10.70;5.70;;;;;;;18.49;63.11;95346.06;4997667;28;20244;-68
2023/05/06 10:00:37;;;;;;;12.70;5.70;;;;;;;18.43;63.84;95346.19;5014542;28;20257;-70
2023/05/06 10:03:02;;;;;;;11.40;5.60;;;;;;;18.46;64.89;95343.88;4999316;28;20239;-69
2023/05/06 10:05:28;;;;;;;7.67;5.60;;;;;;;18.38;64.76;95341.59;4996974;28;20325;-70
2023/05/06 10:07:53;;;;;;;8.37;5.30;;;;;;;18.25;66.04;95335.75;5016341;28;20238;-68
2023/05/06 10:10:22;;;;;;;10.07;5.40;;;;;;;18.25;68.10;95346.34;5007295;28;20225;-69
2023/05/06 10:12:47;;;;;;;9.43;5.53;;;;;;;18.21;67.29;95348.69;5010938;28;20234;-68
2023/05/06 10:15:13;;;;;;;11.73;5.50;;;;;;;18.02;64.60;95349.88;4997856;28;20237;-71
2023/05/06 10:17:39;;;;;;;9.27;5.60;;;;;;;17.85;65.20;95344.53;5009093;28;20222;-70
2023/05/06 10:20:06;;;;;;;11.77;6.03;;;;;;;17.71;64.61;95345.00;4986650;28;20223;-68
2023/05/06 10:23:00;;;;;;;11.43;6.20;;;;;;;17.75;65.98;95343.50;4998946;28;20266;-69
2023/05/06 10:25:31;;;;;;;9.37;5.57;;;;;;;17.95;66.87;95339.44;4997727;28;20234;-69
2023/05/06 10:27:57;;;;;;;10.70;5.60;;;;;;;18.18;65.73;95343.84;5020897;28;20927;-68
2023/05/06 10:30:22;;;;;;;9.20;5.27;;;;;;;18.29;64.91;95342.19;4998013;28;20242;-68
2023/05/06 10:32:48;;;;;;;10.30;5.60;;;;;;;18.37;64.32;95345.25;5018197;28;20230;-70
2023/05/06 10:35:25;;;;;;;9.80;5.40;;;;;;;18.51;64.83;95340.53;5024882;28;20229;-71
2023/05/06 10:37:51;;;;;;;9.23;5.67;;;;;;;18.42;63.44;95340.06;4999932;28;20313;-69
2023/05/06 10:40:16;;;;;;;10.90;5.37;;;;;;;18.55;62.53;95334.50;5024828;28;20303;-70
2023/05/06 10:42:42;;;;;;;8.43;5.30;;;;;;;18.70;62.17;95331.31;4981854;28;20317;-69
2023/05/06 10:45:08;;;;;;;9.13;5.00;;;;;;;18.74;61.05;95330.59;5006688;28;20231;-69
2023/05/06 10:47:56;;;;;;;8.83;4.90;;;;;;;19.11;61.86;95330.91;4999580;28;20862;-71
2023/05/06 10:50:21;;;;;;;7.53;4.60;;;;;;;19.14;60.18;95326.97;5003125;28;20750;-69
2023/05/06 10:52:54;;;;;;;10.07;4.70;;;;;;;19.14;61.50;95324.31;5023009;28;20284;-70
2023/05/06 10:55:28;;;;;;;8.73;4.93;;;;;;;19.46;58.22;95336.00;5005828;28;20226;-68
2023/05/06 10:58:05;;;;;;;5.90;4.40;;;;;;;19.57;58.13;95332.41;5005074;28;20238;-70
2023/05/06 11:00:33;;;;;;;5.77;3.90;;;;;;;20.13;54.59;95331.28;5003311;28;20237;-69
2023/05/06 11:03:04;;;;;;;4.60;3.60;;;;;;;20.52;52.79;95329.31;5011750;28;20286;-69
2023/05/06 11:05:30;;;;;;;9.77;4.30;;;;;;;20.50;49.93;95328.75;4999198;28;20743;-70
2023/05/06 11:08:09;;;;;;;8.87;3.80;;;;;;;20.12;50.48;95321.69;4998362;28;20239;-71
2023/05/06 11:10:35;;;;;;;8.97;4.13;;;;;;;19.85;51.39;95332.25;4996138;28;20226;-69
2023/05/06 11:13:20;;;;;;;5.87;3.80;;;;;;;19.68;48.95;95330.72;5002156;28;20881;-69
2023/05/06 11:15:46;;;;;;;6.40;3.70;;;;;;;19.63;51.41;95328.78;5014985;28;20313;-70